Time;durP1;ratioP1;P1;durP2;ratioP2;P2;SDS_P1;SDS_P2;PMS_P1;PMS_P2;Temp;Humidity;BMP_temperature;BMP_pressure;BME280_temperature;BME280_humidity;BME280_pressure;Samples;Min_cycle;Max_cycle;Signal;HPM_P1;HPM_P2
2021/05/14 00:02:13;;;;;;;2.95;2.45;;;17.50;57.00;;;;;;4737661;30;20058;-89
2021/05/14 00:04:38;;;;;;;3.50;2.90;;;17.50;57.00;;;;;;4749431;30;20069;-88
2021/05/14 00:07:04;;;;;;;3.50;2.65;;;17.50;57.10;;;;;;4752236;30;20040;-88
2021/05/14 00:09:30;;;;;;;3.70;2.50;;;17.50;57.20;;;;;;4746014;30;20093;-88
2021/05/14 00:11:56;;;;;;;3.50;2.50;;;17.50;57.20;;;;;;4754531;30;20047;-88
2021/05/14 00:14:22;;;;;;;3.08;2.60;;;17.50;57.20;;;;;;4747547;30;20535;-88
2021/05/14 00:16:48;;;;;;;3.10;2.55;;;17.40;57.20;;;;;;4751562;30;20037;-88
2021/05/14 00:19:13;;;;;;;4.05;3.08;;;17.40;57.20;;;;;;4746649;30;20117;-87
2021/05/14 00:21:39;;;;;;;3.15;2.60;;;17.40;57.20;;;;;;4764797;30;20089;-88
2021/05/14 00:24:06;;;;;;;3.60;2.85;;;17.40;57.30;;;;;;4761987;30;20028;-88
2021/05/14 00:26:31;;;;;;;4.00;3.10;;;17.40;57.30;;;;;;4755088;30;20432;-88
2021/05/14 00:28:57;;;;;;;3.13;2.70;;;17.30;57.30;;;;;;4748084;30;20170;-88
2021/05/14 00:31:23;;;;;;;3.80;2.78;;;17.30;57.30;;;;;;4752033;30;20490;-88
2021/05/14 00:33:49;;;;;;;4.00;3.10;;;17.30;57.40;;;;;;4754263;30;20103;-88
2021/05/14 00:36:15;;;;;;;3.83;2.95;;;17.30;57.40;;;;;;4758096;30;20051;-88
2021/05/14 00:38:41;;;;;;;4.20;3.03;;;17.30;57.40;;;;;;4745672;30;20475;-88
2021/05/14 00:41:07;;;;;;;4.20;3.22;;;17.30;57.50;;;;;;4763608;30;20035;-88
2021/05/14 00:43:33;;;;;;;3.78;3.03;;;17.20;57.50;;;;;;4748277;30;20027;-88
2021/05/14 00:46:01;;;;;;;3.70;3.28;;;17.20;57.50;;;;;;4753974;30;20066;-88
2021/05/14 00:48:28;;;;;;;4.07;3.22;;;17.20;57.60;;;;;;4744427;30;20041;-88
2021/05/14 00:50:54;;;;;;;4.10;3.50;;;17.20;57.60;;;;;;4744962;30;20527;-89
2021/05/14 00:53:22;;;;;;;4.32;3.40;;;17.20;57.60;;;;;;4765411;30;20070;-88
2021/05/14 00:55:51;;;;;;;3.95;3.25;;;17.20;57.70;;;;;;4742058;30;20037;-89
2021/05/14 00:58:17;;;;;;;3.88;3.40;;;17.10;57.70;;;;;;4757522;30;20028;-89
2021/05/14 01:00:43;;;;;;;4.10;3.38;;;17.10;57.70;;;;;;4742107;30;20032;-87
2021/05/14 01:03:14;;;;;;;4.13;3.38;;;17.10;57.70;;;;;;4753526;30;20475;-88
2021/05/14 01:05:43;;;;;;;4.47;3.55;;;17.10;57.80;;;;;;4757648;30;20043;-88
2021/05/14 01:08:09;;;;;;;4.25;3.45;;;17.10;57.80;;;;;;4741619;30;20028;-89
2021/05/14 01:10:35;;;;;;;3.92;3.40;;;17.10;57.80;;;;;;4754599;30;20110;-88
2021/05/14 01:13:05;;;;;;;4.60;3.70;;;17.10;57.90;;;;;;4747776;30;20177;-89
2021/05/14 01:15:31;;;;;;;4.80;3.72;;;17.10;57.90;;;;;;4768465;30;20114;-88
2021/05/14 01:17:57;;;;;;;4.88;3.80;;;17.00;57.90;;;;;;4769206;30;20023;-88
2021/05/14 01:20:30;;;;;;;5.30;4.05;;;17.00;57.90;;;;;;4754734;30;20038;-88
2021/05/14 01:22:57;;;;;;;4.82;3.95;;;17.00;58.00;;;;;;4751138;30;20040;-88
2021/05/14 01:25:23;;;;;;;4.57;3.78;;;17.00;58.00;;;;;;4754600;30;20032;-88
2021/05/14 01:27:49;;;;;;;5.13;4.40;;;17.00;58.00;;;;;;4755360;30;20056;-87
2021/05/14 01:30:15;;;;;;;5.15;4.10;;;17.00;58.10;;;;;;4755263;30;20035;-88
2021/05/14 01:32:43;;;;;;;4.28;3.78;;;17.00;58.10;;;;;;4770018;30;20543;-88
2021/05/14 01:35:09;;;;;;;5.10;4.20;;;16.90;58.10;;;;;;4762994;30;20046;-88
2021/05/14 01:37:39;;;;;;;5.28;4.38;;;16.90;58.10;;;;;;4757155;30;20064;-88
2021/05/14 01:40:08;;;;;;;5.63;4.50;;;16.90;58.10;;;;;;4746778;30;20024;-89
2021/05/14 01:42:34;;;;;;;5.50;4.80;;;16.90;58.20;;;;;;4742631;30;20139;-88
2021/05/14 01:45:00;;;;;;;5.45;4.38;;;16.90;58.20;;;;;;4725956;30;20124;-88
2021/05/14 01:47:26;;;;;;;5.45;4.78;;;16.90;58.10;;;;;;4743422;30;20063;-90
2021/05/14 01:49:52;;;;;;;5.32;4.50;;;16.90;58.20;;;;;;4759939;30;20024;-89
2021/05/14 01:52:18;;;;;;;5.90;4.57;;;16.90;58.20;;;;;;4747602;30;20047;-89
2021/05/14 01:54:43;;;;;;;5.97;4.78;;;16.90;58.30;;;;;;4759998;30;20024;-89
2021/05/14 01:57:09;;;;;;;5.90;4.93;;;16.80;58.20;;;;;;4757200;30;20035;-89
2021/05/14 01:59:35;;;;;;;6.18;5.20;;;16.80;58.30;;;;;;4754956;30;20036;-89
2021/05/14 02:02:01;;;;;;;5.70;5.00;;;16.80;58.30;;;;;;4758550;30;20044;-88
2021/05/14 02:04:27;;;;;;;6.28;5.55;;;16.80;58.30;;;;;;4750868;30;20042;-89
2021/05/14 02:06:53;;;;;;;6.43;5.30;;;16.80;58.30;;;;;;4757241;30;20064;-89
2021/05/14 02:09:19;;;;;;;6.40;5.28;;;16.80;58.40;;;;;;4748815;30;20036;-88
2021/05/14 02:11:45;;;;;;;6.20;5.25;;;16.80;58.40;;;;;;4759553;30;20035;-88
2021/05/14 02:14:10;;;;;;;5.68;5.07;;;16.70;59.00;;;;;;4763480;30;20043;-89
2021/05/14 02:16:39;;;;;;;6.38;5.63;;;16.70;58.30;;;;;;4759611;30;20028;-88
2021/05/14 02:19:05;;;;;;;7.05;6.28;;;16.70;58.40;;;;;;4735751;30;20477;-88
2021/05/14 02:21:33;;;;;;;7.10;6.13;;;16.70;58.40;;;;;;4754539;30;20027;-89
2021/05/14 02:23:59;;;;;;;6.75;6.05;;;16.70;58.40;;;;;;4752020;30;20083;-89
2021/05/14 02:26:25;;;;;;;7.60;6.57;;;16.70;58.50;;;;;;4755065;30;20067;-89
2021/05/14 02:28:51;;;;;;;6.65;5.95;;;16.60;58.40;;;;;;4766667;30;20048;-89
2021/05/14 02:31:17;;;;;;;6.30;5.43;;;16.60;58.50;;;;;;4757225;30;20042;-89
2021/05/14 02:33:43;;;;;;;7.10;5.90;;;16.60;58.50;;;;;;4761847;30;20023;-89
2021/05/14 02:36:09;;;;;;;6.70;5.68;;;16.60;58.50;;;;;;4769570;30;20039;-89
2021/05/14 02:38:35;;;;;;;7.43;5.75;;;16.60;58.50;;;;;;4741451;30;20056;-89
2021/05/14 02:41:01;;;;;;;7.00;5.88;;;16.50;58.50;;;;;;4752924;30;20490;-89
2021/05/14 02:43:29;;;;;;;7.55;6.50;;;16.60;59.30;;;;;;4746199;30;20036;-89
2021/05/14 02:45:55;;;;;;;6.60;5.88;;;16.50;58.60;;;;;;4747201;30;20032;-89
2021/05/14 02:48:20;;;;;;;6.35;5.65;;;16.50;58.60;;;;;;4754119;30;20044;-90
2021/05/14 02:50:46;;;;;;;7.68;6.47;;;16.40;58.60;;;;;;4753398;30;20031;-90
2021/05/14 02:53:14;;;;;;;6.40;5.55;;;16.50;58.70;;;;;;4756603;30;20041;-90
2021/05/14 02:55:40;;;;;;;6.53;5.82;;;16.50;58.70;;;;;;4766625;30;20034;-90
2021/05/14 02:58:06;;;;;;;7.30;6.18;;;16.40;58.70;;;;;;4757999;30;20028;-90
2021/05/14 03:00:32;;;;;;;6.78;5.60;;;16.40;58.80;;;;;;4752589;30;20051;-89
2021/05/14 03:02:58;;;;;;;7.05;5.78;;;16.40;58.80;;;;;;4757964;30;20051;-89
2021/05/14 03:05:26;;;;;;;7.30;6.50;;;16.40;58.80;;;;;;4747595;30;20051;-89
2021/05/14 03:07:53;;;;;;;7.30;6.50;;;16.40;58.80;;;;;;4755241;30;20043;-89
2021/05/14 03:10:21;;;;;;;6.97;6.07;;;16.40;58.80;;;;;;4754155;30;20040;-89
2021/05/14 03:12:47;;;;;;;7.13;5.80;;;16.40;58.90;;;;;;4766280;30;20089;-89
2021/05/14 03:15:14;;;;;;;7.13;6.05;;;16.40;58.90;;;;;;4754406;30;20452;-90
2021/05/14 03:17:39;;;;;;;7.47;6.20;;;16.40;58.90;;;;;;4765152;30;20046;-89
2021/05/14 03:20:08;;;;;;;7.35;6.47;;;16.30;58.90;;;;;;4755301;30;20028;-89
2021/05/14 03:22:34;;;;;;;7.05;6.35;;;16.30;58.90;;;;;;4753789;30;20105;-90
2021/05/14 03:25:00;;;;;;;7.05;6.18;;;16.30;58.90;;;;;;4755880;30;20550;-89
2021/05/14 03:27:26;;;;;;;7.15;5.85;;;16.30;58.90;;;;;;4755001;30;20139;-91
2021/05/14 03:29:52;;;;;;;7.25;6.20;;;16.30;59.00;;;;;;4754336;30;20040;-90
2021/05/14 03:32:18;;;;;;;7.88;6.50;;;16.30;59.60;;;;;;4753319;30;20043;-90
2021/05/14 03:34:44;;;;;;;8.07;6.15;;;16.20;59.00;;;;;;4747969;30;20036;-90
2021/05/14 03:37:11;;;;;;;6.55;5.82;;;16.20;59.00;;;;;;4733968;30;20111;-90
2021/05/14 03:39:45;;;;;;;8.43;6.68;;;16.20;59.00;;;;;;4754689;30;20040;-90
2021/05/14 03:42:18;;;;;;;6.88;6.07;;;16.20;59.10;;;;;;4759163;30;20546;-90
2021/05/14 03:44:44;;;;;;;6.72;5.65;;;16.20;59.10;;;;;;4745839;30;20570;-90
2021/05/14 03:47:17;;;;;;;7.00;6.13;;;16.10;59.10;;;;;;4757916;30;20114;-90
2021/05/14 03:49:45;;;;;;;7.45;6.25;;;16.10;59.20;;;;;;4749627;30;20142;-90
2021/05/14 03:52:12;;;;;;;7.53;6.03;;;16.10;59.20;;;;;;4734946;30;20038;-91
2021/05/14 03:54:41;;;;;;;7.18;6.05;;;16.10;59.20;;;;;;4752095;30;20040;-91
2021/05/14 03:57:08;;;;;;;7.18;6.38;;;16.10;59.20;;;;;;4742906;30;20044;-90
2021/05/14 03:59:35;;;;;;;7.95;6.88;;;16.10;59.20;;;;;;4764851;30;20447;-90
2021/05/14 04:02:01;;;;;;;7.47;6.63;;;16.10;59.20;;;;;;4752053;30;20059;-90
2021/05/14 04:04:27;;;;;;;7.68;6.45;;;16.00;59.30;;;;;;4739649;30;20070;-90
2021/05/14 04:06:53;;;;;;;7.93;6.65;;;16.00;59.20;;;;;;4754529;30;20063;-90
2021/05/14 04:09:26;;;;;;;7.78;6.43;;;16.00;59.30;;;;;;4745416;30;20039;-90
2021/05/14 04:14:32;;;;;;;7.30;6.47;;;16.00;59.40;;;;;;4752513;30;20186;-90
2021/05/14 04:17:03;;;;;;;7.88;6.78;;;16.00;59.40;;;;;;4759654;30;20040;-90
2021/05/14 04:19:29;;;;;;;7.18;6.30;;;15.90;59.30;;;;;;4741151;30;20039;-90
2021/05/14 04:21:57;;;;;;;7.68;6.88;;;16.00;59.40;;;;;;4761721;30;20031;-91
2021/05/14 04:24:25;;;;;;;8.43;7.15;;;15.90;59.40;;;;;;4765449;30;20040;-90
2021/05/14 04:26:53;;;;;;;8.02;7.03;;;15.90;59.50;;;;;;4751635;30;20036;-90
2021/05/14 04:29:20;;;;;;;7.45;6.60;;;15.90;59.50;;;;;;4757646;30;20079;-90
2021/05/14 04:31:47;;;;;;;8.48;7.18;;;15.90;59.50;;;;;;4768656;30;20035;-90
2021/05/14 04:34:15;;;;;;;7.95;6.55;;;15.90;59.50;;;;;;4754861;30;20127;-90
2021/05/14 04:36:42;;;;;;;8.05;7.22;;;15.90;59.60;;;;;;4745227;30;20871;-90
2021/05/14 04:39:09;;;;;;;7.53;6.70;;;15.90;59.60;;;;;;4763153;30;20058;-90
2021/05/14 04:41:38;;;;;;;8.52;7.25;;;15.90;59.60;;;;;;4730133;30;20035;-91
2021/05/14 04:44:05;;;;;;;7.88;6.38;;;15.90;59.60;;;;;;4752352;30;20379;-90
2021/05/14 04:46:33;;;;;;;8.18;7.28;;;15.80;59.70;;;;;;4754331;30;20528;-91
2021/05/14 04:49:03;;;;;;;8.23;6.97;;;15.80;59.60;;;;;;4749626;30;20027;-90
2021/05/14 04:51:29;;;;;;;7.68;6.88;;;15.90;59.80;;;;;;4748481;30;20055;-90
2021/05/14 04:53:56;;;;;;;7.82;7.03;;;15.90;59.70;;;;;;4753255;30;20059;-92
2021/05/14 04:56:30;;;;;;;8.07;7.07;;;15.90;59.80;;;;;;4752358;30;20459;-90
2021/05/14 04:58:56;;;;;;;8.82;7.15;;;15.80;59.70;;;;;;4754204;30;20032;-91
2021/05/14 05:01:22;;;;;;;7.88;6.65;;;15.80;59.70;;;;;;4766348;30;20028;-90
2021/05/14 05:03:54;;;;;;;8.90;7.32;;;15.80;59.80;;;;;;4747391;30;20408;-91
2021/05/14 05:06:24;;;;;;;8.32;7.40;;;15.80;60.00;;;;;;4763458;30;20036;-91
2021/05/14 05:08:51;;;;;;;8.40;7.40;;;15.80;59.90;;;;;;4757877;30;20402;-91
2021/05/14 05:11:17;;;;;;;8.80;7.68;;;15.80;59.90;;;;;;4745518;30;20031;-90
2021/05/14 05:13:43;;;;;;;8.65;7.60;;;15.80;59.90;;;;;;4764144;30;20040;-90
2021/05/14 05:16:09;;;;;;;9.55;8.00;;;15.80;59.90;;;;;;4757329;30;20375;-91
2021/05/14 05:18:37;;;;;;;8.27;7.03;;;15.80;60.00;;;;;;4758970;30;20031;-90
2021/05/14 05:21:04;;;;;;;9.07;8.05;;;15.80;60.00;;;;;;4758456;30;20490;-91
2021/05/14 05:23:29;;;;;;;9.35;8.10;;;15.80;60.00;;;;;;4745667;30;20043;-91
2021/05/14 05:25:55;;;;;;;9.07;8.10;;;15.80;60.00;;;;;;4759091;30;20047;-91
2021/05/14 05:28:29;;;;;;;10.02;8.55;;;15.80;60.00;;;;;;4745512;30;20148;-91
2021/05/14 05:30:57;;;;;;;9.98;8.43;;;15.80;60.10;;;;;;4757736;30;20046;-92
2021/05/14 05:33:25;;;;;;;9.77;8.00;;;15.80;60.10;;;;;;4752953;30;20036;-91
2021/05/14 05:35:54;;;;;;;9.73;8.73;;;15.80;60.10;;;;;;4775567;30;20024;-90
2021/05/14 05:38:23;;;;;;;10.93;8.85;;;15.80;60.10;;;;;;4752940;30;20466;-90
2021/05/14 05:40:50;;;;;;;9.70;8.55;;;15.80;60.20;;;;;;4756934;30;20047;-91
2021/05/14 05:43:17;;;;;;;9.82;7.80;;;15.80;60.10;;;;;;4773112;30;20059;-92
2021/05/14 05:45:43;;;;;;;10.63;8.63;;;15.80;60.20;;;;;;4765764;30;20040;-90
2021/05/14 05:48:10;;;;;;;10.32;8.38;;;15.80;60.30;;;;;;4754640;30;20036;-91
2021/05/14 05:50:40;;;;;;;10.02;8.52;;;15.80;60.20;;;;;;4748013;30;20119;-91
2021/05/14 05:53:08;;;;;;;9.10;7.75;;;15.80;60.30;;;;;;4771045;30;20031;-90
2021/05/14 05:55:34;;;;;;;9.93;8.88;;;15.80;60.30;;;;;;4774048;30;20031;-90
2021/05/14 05:58:15;;;;;;;8.82;7.65;;;15.80;60.30;;;;;;4756937;30;20036;-91
2021/05/14 06:00:42;;;;;;;9.20;7.65;;;15.80;60.50;;;;;;4770725;30;20035;-92
2021/05/14 06:03:10;;;;;;;8.35;6.80;;;15.80;60.40;;;;;;4737458;30;20586;-91
2021/05/14 06:05:39;;;;;;;8.75;6.90;;;15.80;60.50;;;;;;4752085;30;20064;-92
2021/05/14 06:08:05;;;;;;;9.43;7.90;;;15.80;60.50;;;;;;4750916;30;20085;-93
2021/05/14 06:10:37;;;;;;;8.73;7.57;;;15.80;60.50;;;;;;4753646;30;20036;-90
2021/05/14 06:13:03;;;;;;;8.50;7.18;;;15.80;60.60;;;;;;4742589;30;20062;-87
2021/05/14 06:15:31;;;;;;;8.23;7.07;;;15.80;60.60;;;;;;4754368;30;20037;-90
2021/05/14 06:18:10;;;;;;;8.68;7.22;;;15.80;60.70;;;;;;4726713;30;20028;-89
2021/05/14 06:20:45;;;;;;;7.88;6.68;;;15.80;60.70;;;;;;4770035;30;20436;-90
2021/05/14 06:23:16;;;;;;;7.35;6.25;;;15.80;60.70;;;;;;4746258;30;20032;-89
2021/05/14 06:25:42;;;;;;;7.60;6.22;;;15.80;60.60;;;;;;4737287;30;20143;-89
2021/05/14 06:28:21;;;;;;;7.70;6.00;;;15.80;60.70;;;;;;4756029;30;20064;-88
2021/05/14 06:30:47;;;;;;;7.40;6.00;;;15.80;60.80;;;;;;4753198;30;20032;-81
2021/05/14 06:33:13;;;;;;;8.23;6.97;;;15.80;60.70;;;;;;4752250;30;20466;-92
2021/05/14 06:35:43;;;;;;;7.35;5.97;;;15.80;60.70;;;;;;4753878;30;20127;-90
2021/05/14 06:38:09;;;;;;;8.23;6.18;;;15.80;60.70;;;;;;4764399;30;20028;-87
2021/05/14 06:40:37;;;;;;;7.32;5.97;;;15.80;60.70;;;;;;4757275;30;20579;-94
2021/05/14 06:43:06;;;;;;;7.82;5.88;;;15.80;60.70;;;;;;4752499;30;20044;-94
2021/05/14 06:46:34;;;;;;;7.63;6.22;;;15.80;60.80;;;;;;4740409;30;20440;-93
2021/05/14 06:48:58;;;;;;;7.30;5.80;;;15.80;60.90;;;;;;4768403;30;20125;-90
2021/05/14 06:51:26;;;;;;;7.20;5.80;;;15.80;60.70;;;;;;4745913;30;20040;-88
2021/05/14 06:53:57;;;;;;;7.22;5.95;;;15.90;60.80;;;;;;4748735;30;20101;-89
2021/05/14 06:56:25;;;;;;;7.10;5.85;;;15.90;60.90;;;;;;4753891;30;20043;-87
2021/05/14 06:58:54;;;;;;;7.40;6.15;;;15.80;60.80;;;;;;4750704;30;20114;-92
2021/05/14 07:01:28;;;;;;;6.65;5.68;;;15.90;60.90;;;;;;4739423;30;20040;-92
2021/05/14 07:04:13;;;;;;;7.05;6.00;;;15.90;60.90;;;;;;4732530;30;20048;-89
2021/05/14 07:06:39;;;;;;;6.75;5.63;;;15.90;61.00;;;;;;4730835;30;20075;-90
2021/05/14 07:09:07;;;;;;;6.95;5.82;;;15.90;60.90;;;;;;4765532;30;20028;-89
2021/05/14 07:11:36;;;;;;;7.25;5.95;;;15.80;60.90;;;;;;4752400;30;20027;-91
2021/05/14 07:14:02;;;;;;;7.63;5.95;;;15.90;60.90;;;;;;4767409;30;20055;-90
2021/05/14 07:16:28;;;;;;;6.78;5.43;;;15.90;60.90;;;;;;4731776;30;20102;-89
2021/05/14 07:18:57;;;;;;;7.10;5.45;;;15.90;60.90;;;;;;4738408;30;20016;-91
2021/05/14 07:21:24;;;;;;;7.20;5.85;;;15.90;60.90;;;;;;4758604;30;20378;-87
2021/05/14 07:23:50;;;;;;;7.45;6.07;;;15.90;60.90;;;;;;4752369;30;20122;-88
2021/05/14 07:26:17;;;;;;;6.65;5.57;;;15.90;60.90;;;;;;4765317;30;20063;-88
2021/05/14 07:28:43;;;;;;;7.85;6.15;;;15.90;60.90;;;;;;4758487;30;20123;-87
2021/05/14 07:31:21;;;;;;;7.70;6.15;;;16.00;61.00;;;;;;4768276;30;20027;-93
2021/05/14 07:33:55;;;;;;;7.55;6.15;;;16.00;61.00;;;;;;4756457;30;20044;-95
2021/05/14 07:36:33;;;;;;;7.15;6.00;;;16.00;61.00;;;;;;4745589;30;20036;-87
2021/05/14 07:38:59;;;;;;;7.22;6.13;;;16.00;60.90;;;;;;4745045;30;20077;-88
2021/05/14 07:41:25;;;;;;;6.55;5.78;;;16.00;60.90;;;;;;4761386;30;20054;-85
2021/05/14 07:43:54;;;;;;;7.07;5.78;;;16.00;61.00;;;;;;4770437;30;20063;-91
2021/05/14 07:46:22;;;;;;;7.18;5.97;;;16.00;61.60;;;;;;4742838;30;20071;-92
2021/05/14 07:48:50;;;;;;;8.25;6.68;;;16.10;61.00;;;;;;4744917;30;20066;-90
2021/05/14 07:51:16;;;;;;;7.75;6.53;;;16.10;61.00;;;;;;4736605;30;20100;-89
2021/05/14 07:53:42;;;;;;;7.55;6.65;;;16.10;61.00;;;;;;4755479;30;20106;-91
2021/05/14 07:56:08;;;;;;;8.15;6.38;;;16.20;61.10;;;;;;4765861;30;20081;-90
2021/05/14 07:58:34;;;;;;;7.63;6.25;;;16.20;61.10;;;;;;4752129;30;20043;-90
2021/05/14 08:01:03;;;;;;;9.05;6.97;;;16.20;61.10;;;;;;4768861;30;20488;-92
2021/05/14 08:03:29;;;;;;;9.25;7.30;;;16.20;61.10;;;;;;4760388;30;20110;-94
2021/05/14 08:05:55;;;;;;;7.57;6.43;;;16.20;61.00;;;;;;4753380;30;20130;-87
2021/05/14 08:08:23;;;;;;;8.40;7.28;;;16.20;61.00;;;;;;4755120;30;20479;-86
2021/05/14 08:10:54;;;;;;;9.00;7.55;;;16.30;61.00;;;;;;4764196;30;20162;-84
2021/05/14 08:13:21;;;;;;;8.77;6.90;;;16.30;61.10;;;;;;4758044;30;20403;-85
2021/05/14 08:15:47;;;;;;;9.10;7.10;;;16.30;61.10;;;;;;4742857;30;20122;-85
2021/05/14 08:18:13;;;;;;;8.90;7.45;;;16.30;61.10;;;;;;4755097;30;20117;-91
2021/05/14 08:20:41;;;;;;;9.13;7.43;;;16.40;61.20;;;;;;4753921;30;20039;-91
2021/05/14 08:23:10;;;;;;;8.20;7.07;;;16.40;61.20;;;;;;4767920;30;20466;-89
2021/05/14 08:25:36;;;;;;;8.32;7.25;;;16.40;61.30;;;;;;4754561;30;20035;-87
2021/05/14 08:28:02;;;;;;;9.07;7.40;;;16.40;61.20;;;;;;4763740;30;20061;-92
2021/05/14 08:30:28;;;;;;;8.88;7.57;;;16.40;61.20;;;;;;4752294;30;20166;-82
2021/05/14 08:32:56;;;;;;;8.50;7.13;;;16.50;61.20;;;;;;4739610;30;20443;-88
2021/05/14 08:35:22;;;;;;;8.85;7.40;;;16.50;61.20;;;;;;4751516;30;20032;-89
2021/05/14 08:37:48;;;;;;;8.55;7.65;;;16.50;61.20;;;;;;4746895;30;20071;-88
2021/05/14 08:40:15;;;;;;;9.10;8.13;;;16.50;61.10;;;;;;4744418;30;20043;-87
2021/05/14 08:42:42;;;;;;;9.55;7.70;;;16.60;61.20;;;;;;4752566;30;20040;-88
2021/05/14 08:45:12;;;;;;;8.40;7.45;;;16.60;61.10;;;;;;4739334;30;20044;-89
2021/05/14 08:47:39;;;;;;;8.60;7.50;;;16.60;61.10;;;;;;4746375;30;20040;-89
2021/05/14 08:50:07;;;;;;;9.18;7.35;;;16.70;61.00;;;;;;4764337;30;20049;-90
2021/05/14 08:52:35;;;;;;;8.80;7.88;;;16.70;61.00;;;;;;4750468;30;20082;-91
2021/05/14 08:55:02;;;;;;;8.55;7.53;;;16.70;61.00;;;;;;4751340;30;20074;-89
2021/05/14 08:57:28;;;;;;;8.45;7.40;;;16.70;60.90;;;;;;4731810;30;20474;-91
2021/05/14 08:59:56;;;;;;;8.65;7.75;;;16.80;60.90;;;;;;4759800;30;20028;-95
2021/05/14 09:02:24;;;;;;;9.07;7.35;;;16.90;60.90;;;;;;4749101;30;20099;-85
2021/05/14 09:04:50;;;;;;;9.75;7.90;;;16.80;60.80;;;;;;4762020;30;20054;-85
2021/05/14 09:07:18;;;;;;;9.23;7.68;;;16.90;60.80;;;;;;4767032;30;20036;-92
2021/05/14 09:10:06;;;;;;;8.20;7.25;;;16.90;60.80;;;;;;4749465;30;20086;-93
2021/05/14 09:12:37;;;;;;;9.60;8.18;;;17.00;60.90;;;;;;4764840;30;20127;-91
2021/05/14 09:15:26;;;;;;;9.18;7.38;;;17.00;60.80;;;;;;4740821;30;20040;-93
2021/05/14 09:18:17;;;;;;;8.80;7.63;;;17.10;60.90;;;;;;4760769;30;20039;-93
2021/05/14 09:20:58;;;;;;;7.85;7.05;;;17.10;60.80;;;;;;4751545;30;20032;-87
2021/05/14 09:23:26;;;;;;;8.85;7.70;;;17.10;60.70;;;;;;4750924;30;20114;-87
2021/05/14 09:25:54;;;;;;;9.68;7.72;;;17.20;60.70;;;;;;4764501;30;20028;-88
2021/05/14 09:28:25;;;;;;;9.02;7.80;;;17.20;60.70;;;;;;4743132;30;20048;-87
2021/05/14 09:31:14;;;;;;;8.93;7.65;;;17.20;60.70;;;;;;4767932;30;20051;-87
2021/05/14 09:33:48;;;;;;;9.32;7.85;;;17.30;60.80;;;;;;4753733;30;20046;-86
2021/05/14 09:36:24;;;;;;;9.95;7.63;;;17.30;60.50;;;;;;4757288;30;20036;-87
2021/05/14 09:38:54;;;;;;;9.55;7.47;;;17.40;60.60;;;;;;4754243;30;20040;-87
2021/05/14 09:41:27;;;;;;;9.52;7.88;;;17.40;60.40;;;;;;4768823;30;20117;-87
2021/05/14 09:44:03;;;;;;;9.95;8.40;;;17.40;60.40;;;;;;4769829;30;20040;-82
2021/05/14 09:46:29;;;;;;;9.75;8.30;;;17.50;60.50;;;;;;4759169;30;20097;-83
2021/05/14 09:49:06;;;;;;;9.75;8.20;;;17.50;60.30;;;;;;4752600;30;20059;-82
2021/05/14 09:51:33;;;;;;;9.05;7.82;;;17.50;60.40;;;;;;4758417;30;20032;-83
2021/05/14 09:54:18;;;;;;;9.32;7.78;;;17.60;60.20;;;;;;4734080;30;20113;-83
2021/05/14 09:56:44;;;;;;;9.00;8.10;;;17.60;60.30;;;;;;4756050;30;20040;-83
2021/05/14 09:59:10;;;;;;;9.63;7.88;;;17.70;60.10;;;;;;4756206;30;20089;-83
2021/05/14 10:01:36;;;;;;;9.38;7.63;;;17.70;60.00;;;;;;4728002;30;20437;-82
2021/05/14 10:04:02;;;;;;;9.75;8.38;;;17.80;60.10;;;;;;4727314;30;20038;-83
2021/05/14 10:06:31;;;;;;;9.98;8.65;;;17.80;60.00;;;;;;4762418;30;20078;-82
2021/05/14 10:09:06;;;;;;;9.13;7.78;;;17.80;60.00;;;;;;4758204;30;20020;-82
2021/05/14 10:11:32;;;;;;;9.27;7.63;;;17.90;60.00;;;;;;4744548;30;20032;-82
2021/05/14 10:13:58;;;;;;;10.30;8.65;;;18.00;59.90;;;;;;4752775;30;20063;-82
2021/05/14 10:16:24;;;;;;;9.00;7.75;;;18.00;59.80;;;;;;4745449;30;20486;-83
2021/05/14 10:18:52;;;;;;;9.75;8.63;;;18.00;59.80;;;;;;4737792;30;20032;-82
2021/05/14 10:21:20;;;;;;;9.23;7.95;;;18.10;59.80;;;;;;4755943;30;20422;-83
2021/05/14 10:23:46;;;;;;;9.63;8.23;;;18.10;59.70;;;;;;4771816;30;20035;-82
2021/05/14 10:26:13;;;;;;;9.32;8.00;;;18.20;59.70;;;;;;4757939;30;20159;-83
2021/05/14 10:28:49;;;;;;;9.20;7.78;;;18.20;59.70;;;;;;4755586;30;20035;-82
2021/05/14 10:31:19;;;;;;;8.80;7.45;;;18.30;59.70;;;;;;4755204;30;20132;-82
2021/05/14 10:33:50;;;;;;;9.05;7.53;;;18.30;60.20;;;;;;4755261;30;20573;-81
2021/05/14 10:36:23;;;;;;;9.65;8.10;;;18.30;59.50;;;;;;4771284;30;20039;-81
2021/05/14 10:39:07;;;;;;;9.90;8.18;;;18.40;59.50;;;;;;4755351;30;20101;-81
2021/05/14 10:41:45;;;;;;;8.45;7.28;;;18.40;59.50;;;;;;4769935;30;20058;-81
2021/05/14 10:44:11;;;;;;;8.70;7.22;;;18.50;59.40;;;;;;4769734;30;20469;-81
2021/05/14 10:46:37;;;;;;;8.55;7.22;;;18.50;59.20;;;;;;4740341;30;20040;-81
2021/05/14 10:49:11;;;;;;;8.57;6.97;;;18.60;59.20;;;;;;4757052;30;20043;-81
2021/05/14 10:51:45;;;;;;;9.75;8.35;;;18.60;59.20;;;;;;4752549;30;20039;-81
2021/05/14 10:54:39;;;;;;;9.07;7.72;;;18.70;59.10;;;;;;4769636;30;20036;-81
2021/05/14 10:57:10;;;;;;;8.77;7.20;;;18.80;59.00;;;;;;4754442;30;20028;-81
2021/05/14 10:59:38;;;;;;;8.85;7.00;;;18.90;58.90;;;;;;4769512;30;20042;-82
2021/05/14 11:02:29;;;;;;;9.07;6.85;;;18.90;58.80;;;;;;4754447;30;20024;-80
2021/05/14 11:04:56;;;;;;;9.27;7.18;;;19.00;58.80;;;;;;4769304;30;20187;-81
2021/05/14 11:07:40;;;;;;;7.95;6.65;;;19.00;58.50;;;;;;4768764;30;20446;-80
2021/05/14 11:10:12;;;;;;;8.95;7.38;;;19.10;58.60;;;;;;4754253;30;20158;-81
2021/05/14 11:12:39;;;;;;;8.23;6.40;;;19.20;58.50;;;;;;4769430;30;20046;-81
2021/05/14 11:15:28;;;;;;;7.95;6.65;;;19.20;58.40;;;;;;4754298;30;20127;-82
2021/05/14 11:18:06;;;;;;;6.68;5.95;;;19.30;58.50;;;;;;4770653;30;20040;-82
2021/05/14 11:20:42;;;;;;;7.18;6.35;;;19.40;58.30;;;;;;4757666;30;20059;-81
2021/05/14 11:23:30;;;;;;;7.65;6.40;;;19.50;58.30;;;;;;4757065;30;20039;-82
2021/05/14 11:25:56;;;;;;;7.25;6.07;;;19.60;58.30;;;;;;4753867;30;20123;-82
2021/05/14 11:28:43;;;;;;;7.45;6.38;;;19.60;58.10;;;;;;4768995;30;20114;-80
2021/05/14 11:31:16;;;;;;;7.70;6.20;;;19.70;58.10;;;;;;4768591;30;20058;-81
2021/05/14 11:33:47;;;;;;;7.38;6.40;;;19.70;58.00;;;;;;4753917;30;20067;-81
2021/05/14 11:36:13;;;;;;;7.25;5.97;;;19.80;57.90;;;;;;4754136;30;20118;-81
2021/05/14 11:38:46;;;;;;;7.20;6.28;;;19.90;57.90;;;;;;4754262;30;20039;-81
2021/05/14 11:41:25;;;;;;;7.28;5.97;;;20.00;57.90;;;;;;4768687;30;20039;-82
2021/05/14 11:44:02;;;;;;;6.47;5.47;;;20.00;57.70;;;;;;4768803;30;20436;-82
2021/05/14 11:46:33;;;;;;;6.40;5.28;;;20.10;57.70;;;;;;4754701;30;20056;-81
2021/05/14 11:49:06;;;;;;;6.63;5.20;;;20.10;57.60;;;;;;4753986;30;20036;-83
2021/05/14 11:51:36;;;;;;;6.07;4.82;;;20.20;57.60;;;;;;4768725;30;20038;-81
2021/05/14 11:54:28;;;;;;;5.80;4.85;;;20.20;57.50;;;;;;4768624;30;20043;-82
2021/05/14 11:57:00;;;;;;;6.00;4.90;;;20.30;57.60;;;;;;4748787;30;20050;-81
2021/05/14 11:59:26;;;;;;;5.65;4.82;;;20.40;57.50;;;;;;4731732;30;20126;-82
2021/05/14 12:01:52;;;;;;;6.57;4.93;;;20.40;57.40;;;;;;4753742;30;20107;-82
2021/05/14 12:04:17;;;;;;;5.50;4.32;;;20.50;57.50;;;;;;4739101;30;20039;-81
2021/05/14 12:06:47;;;;;;;5.65;4.65;;;20.50;57.50;;;;;;4753907;30;20067;-81
2021/05/14 12:09:13;;;;;;;5.10;4.32;;;20.50;57.40;;;;;;4753499;30;20038;-81
2021/05/14 12:11:41;;;;;;;5.00;4.03;;;20.60;57.40;;;;;;4768470;30;20111;-82
2021/05/14 12:14:07;;;;;;;6.00;4.38;;;20.60;57.40;;;;;;4763770;30;20052;-81
2021/05/14 12:16:36;;;;;;;5.10;4.18;;;20.70;57.40;;;;;;4761942;30;20035;-81
2021/05/14 12:19:04;;;;;;;5.32;4.25;;;20.70;57.30;;;;;;4752740;30;20063;-81
2021/05/14 12:21:35;;;;;;;4.88;3.90;;;20.70;57.30;;;;;;4750752;30;20398;-80
2021/05/14 12:24:16;;;;;;;4.55;3.83;;;20.80;57.30;;;;;;4750219;30;20474;-81
2021/05/14 12:26:42;;;;;;;5.13;3.78;;;20.80;57.30;;;;;;4757776;30;20059;-81
2021/05/14 12:29:25;;;;;;;4.65;3.50;;;20.90;57.20;;;;;;4753210;30;20040;-80
2021/05/14 12:32:22;;;;;;;4.93;3.55;;;20.90;57.30;;;;;;4746345;30;20115;-81
2021/05/14 12:34:51;;;;;;;4.30;3.33;;;20.90;57.20;;;;;;4764144;30;20040;-81
2021/05/14 12:37:17;;;;;;;4.10;2.90;;;21.00;57.10;;;;;;4750177;30;20028;-81
2021/05/14 12:39:49;;;;;;;4.57;3.42;;;21.00;57.10;;;;;;4767875;30;20035;-80
2021/05/14 12:42:29;;;;;;;4.15;3.20;;;21.00;57.00;;;;;;4753196;30;20063;-81
2021/05/14 12:44:56;;;;;;;4.45;3.05;;;21.00;57.00;;;;;;4767959;30;20035;-81
2021/05/14 12:47:27;;;;;;;3.70;2.85;;;21.10;56.90;;;;;;4769070;30;20055;-80
2021/05/14 12:49:58;;;;;;;4.30;3.20;;;21.10;56.80;;;;;;4753178;30;20047;-82
2021/05/14 12:52:24;;;;;;;3.45;2.72;;;21.10;56.80;;;;;;4759452;30;20044;-81
2021/05/14 12:54:56;;;;;;;3.60;2.83;;;21.10;56.70;;;;;;4749476;30;20039;-81
2021/05/14 12:57:26;;;;;;;3.08;2.60;;;21.20;56.70;;;;;;4774799;30;20376;-81
2021/05/14 12:59:53;;;;;;;3.63;2.65;;;21.20;56.70;;;;;;4753209;30;20389;-80